sensor_id;sensor_type;location;lat;lon;timestamp;temperature;humidity
51801;DHT22;37855;53.204;6.568;2023-07-13T00:00:12;18.40;64.20
51801;DHT22;37855;53.204;6.568;2023-07-13T00:02:41;18.40;64.30
51801;DHT22;37855;53.204;6.568;2023-07-13T00:05:07;18.40;64.30
51801;DHT22;37855;53.204;6.568;2023-07-13T00:07:34;18.40;64.30
51801;DHT22;37855;53.204;6.568;2023-07-13T00:10:00;18.40;64.40
51801;DHT22;37855;53.204;6.568;2023-07-13T00:12:29;18.50;64.30
51801;DHT22;37855;53.204;6.568;2023-07-13T00:15:00;18.40;64.40
51801;DHT22;37855;53.204;6.568;2023-07-13T00:17:27;18.40;64.30
51801;DHT22;37855;53.204;6.568;2023-07-13T00:19:54;18.40;64.30
51801;DHT22;37855;53.204;6.568;2023-07-13T00:22:21;18.40;64.30
51801;DHT22;37855;53.204;6.568;2023-07-13T00:24:47;18.40;64.40
51801;DHT22;37855;53.204;6.568;2023-07-13T00:27:13;18.40;64.30
51801;DHT22;37855;53.204;6.568;2023-07-13T00:29:39;18.40;64.40
51801;DHT22;37855;53.204;6.568;2023-07-13T00:32:06;18.40;64.40
51801;DHT22;37855;53.204;6.568;2023-07-13T00:34:33;18.30;64.50
51801;DHT22;37855;53.204;6.568;2023-07-13T00:36:58;18.30;64.60
51801;DHT22;37855;53.204;6.568;2023-07-13T00:39:24;18.30;64.70
51801;DHT22;37855;53.204;6.568;2023-07-13T00:41:51;18.30;64.80
51801;DHT22;37855;53.204;6.568;2023-07-13T00:44:19;18.30;65.00
51801;DHT22;37855;53.204;6.568;2023-07-13T00:46:45;18.20;65.10
51801;DHT22;37855;53.204;6.568;2023-07-13T00:49:14;18.20;65.10
51801;DHT22;37855;53.204;6.568;2023-07-13T00:51:49;18.20;65.20
51801;DHT22;37855;53.204;6.568;2023-07-13T00:54:21;18.10;65.40
51801;DHT22;37855;53.204;6.568;2023-07-13T00:56:50;18.00;65.60
51801;DHT22;37855;53.204;6.568;2023-07-13T00:59:17;18.00;65.80
51801;DHT22;37855;53.204;6.568;2023-07-13T01:01:44;18.00;66.00
51801;DHT22;37855;53.204;6.568;2023-07-13T01:04:10;17.90;66.00
51801;DHT22;37855;53.204;6.568;2023-07-13T01:06:37;17.90;66.10
51801;DHT22;37855;53.204;6.568;2023-07-13T01:09:04;17.90;66.30
51801;DHT22;37855;53.204;6.568;2023-07-13T01:11:31;17.90;66.30
51801;DHT22;37855;53.204;6.568;2023-07-13T01:13:57;17.90;66.30
51801;DHT22;37855;53.204;6.568;2023-07-13T01:16:30;17.90;66.50
51801;DHT22;37855;53.204;6.568;2023-07-13T01:18:56;17.80;66.60
51801;DHT22;37855;53.204;6.568;2023-07-13T01:21:28;17.80;66.70
51801;DHT22;37855;53.204;6.568;2023-07-13T01:23:55;17.80;66.60
51801;DHT22;37855;53.204;6.568;2023-07-13T01:26:21;17.80;66.80
51801;DHT22;37855;53.204;6.568;2023-07-13T01:28:47;17.70;66.80
51801;DHT22;37855;53.204;6.568;2023-07-13T01:31:13;17.70;66.90
51801;DHT22;37855;53.204;6.568;2023-07-13T01:33:39;17.70;67.10
51801;DHT22;37855;53.204;6.568;2023-07-13T01:36:09;17.70;67.10
51801;DHT22;37855;53.204;6.568;2023-07-13T01:38:36;17.70;67.20
51801;DHT22;37855;53.204;6.568;2023-07-13T01:41:03;17.70;67.40
51801;DHT22;37855;53.204;6.568;2023-07-13T01:43:29;17.60;67.60
51801;DHT22;37855;53.204;6.568;2023-07-13T01:45:55;17.60;67.50
51801;DHT22;37855;53.204;6.568;2023-07-13T01:48:21;17.60;67.70
51801;DHT22;37855;53.204;6.568;2023-07-13T01:50:47;17.60;67.70
51801;DHT22;37855;53.204;6.568;2023-07-13T01:53:14;17.60;67.80
51801;DHT22;37855;53.204;6.568;2023-07-13T01:55:39;17.60;67.90
51801;DHT22;37855;53.204;6.568;2023-07-13T01:58:05;17.60;68.00
51801;DHT22;37855;53.204;6.568;2023-07-13T02:00:32;17.60;68.00
51801;DHT22;37855;53.204;6.568;2023-07-13T02:02:58;17.60;68.20
51801;DHT22;37855;53.204;6.568;2023-07-13T02:05:24;17.60;68.20
51801;DHT22;37855;53.204;6.568;2023-07-13T02:07:50;17.50;68.30
51801;DHT22;37855;53.204;6.568;2023-07-13T02:10:16;17.60;68.40
51801;DHT22;37855;53.204;6.568;2023-07-13T02:12:42;17.50;68.40
51801;DHT22;37855;53.204;6.568;2023-07-13T02:15:09;17.50;68.50
51801;DHT22;37855;53.204;6.568;2023-07-13T02:17:36;17.50;68.60
51801;DHT22;37855;53.204;6.568;2023-07-13T02:20:02;17.50;68.90
51801;DHT22;37855;53.204;6.568;2023-07-13T02:22:29;17.40;68.90
51801;DHT22;37855;53.204;6.568;2023-07-13T02:24:54;17.40;69.20
51801;DHT22;37855;53.204;6.568;2023-07-13T02:27:20;17.40;69.20
51801;DHT22;37855;53.204;6.568;2023-07-13T02:29:46;17.40;69.20
51801;DHT22;37855;53.204;6.568;2023-07-13T02:32:12;17.40;69.30
51801;DHT22;37855;53.204;6.568;2023-07-13T02:34:38;17.30;69.40
51801;DHT22;37855;53.204;6.568;2023-07-13T02:37:04;17.30;69.50
51801;DHT22;37855;53.204;6.568;2023-07-13T02:39:30;17.30;69.40
51801;DHT22;37855;53.204;6.568;2023-07-13T02:41:59;17.30;69.50
51801;DHT22;37855;53.204;6.568;2023-07-13T02:44:26;17.30;69.60
51801;DHT22;37855;53.204;6.568;2023-07-13T02:46:51;17.30;69.70
51801;DHT22;37855;53.204;6.568;2023-07-13T02:49:17;17.20;69.70
51801;DHT22;37855;53.204;6.568;2023-07-13T02:51:43;17.20;69.80
51801;DHT22;37855;53.204;6.568;2023-07-13T02:54:09;17.20;70.10
51801;DHT22;37855;53.204;6.568;2023-07-13T02:56:35;17.10;70.10
51801;DHT22;37855;53.204;6.568;2023-07-13T02:59:01;17.10;70.20
51801;DHT22;37855;53.204;6.568;2023-07-13T03:01:28;17.10;70.30
51801;DHT22;37855;53.204;6.568;2023-07-13T03:03:53;17.10;70.50
51801;DHT22;37855;53.204;6.568;2023-07-13T03:06:19;17.10;70.60
51801;DHT22;37855;53.204;6.568;2023-07-13T03:08:47;17.10;70.90
51801;DHT22;37855;53.204;6.568;2023-07-13T03:11:17;17.40;71.10
51801;DHT22;37855;53.204;6.568;2023-07-13T03:13:43;17.70;70.60
51801;DHT22;37855;53.204;6.568;2023-07-13T03:16:10;17.90;70.10
51801;DHT22;37855;53.204;6.568;2023-07-13T03:18:36;18.10;69.80
51801;DHT22;37855;53.204;6.568;2023-07-13T03:21:05;18.30;69.50
51801;DHT22;37855;53.204;6.568;2023-07-13T03:23:31;18.40;69.20
51801;DHT22;37855;53.204;6.568;2023-07-13T03:26:23;18.50;68.90
51801;DHT22;37855;53.204;6.568;2023-07-13T03:28:50;18.60;68.60
51801;DHT22;37855;53.204;6.568;2023-07-13T03:31:21;18.70;68.50
51801;DHT22;37855;53.204;6.568;2023-07-13T03:33:48;18.70;68.40
51801;DHT22;37855;53.204;6.568;2023-07-13T03:36:18;18.80;68.20
51801;DHT22;37855;53.204;6.568;2023-07-13T03:38:46;18.80;68.10
51801;DHT22;37855;53.204;6.568;2023-07-13T03:41:12;18.90;68.00
51801;DHT22;37855;53.204;6.568;2023-07-13T03:43:38;18.90;67.90
51801;DHT22;37855;53.204;6.568;2023-07-13T03:46:03;19.00;67.70
51801;DHT22;37855;53.204;6.568;2023-07-13T03:48:29;19.00;67.60
51801;DHT22;37855;53.204;6.568;2023-07-13T03:50:55;19.10;67.50
51801;DHT22;37855;53.204;6.568;2023-07-13T03:53:21;19.10;67.30
51801;DHT22;37855;53.204;6.568;2023-07-13T03:55:46;19.20;67.00
51801;DHT22;37855;53.204;6.568;2023-07-13T03:58:34;19.20;67.00
51801;DHT22;37855;53.204;6.568;2023-07-13T04:01:01;19.30;66.90
51801;DHT22;37855;53.204;6.568;2023-07-13T04:03:28;19.30;66.80
51801;DHT22;37855;53.204;6.568;2023-07-13T04:05:56;19.30;66.70
51801;DHT22;37855;53.204;6.568;2023-07-13T04:08:29;19.20;66.80
51801;DHT22;37855;53.204;6.568;2023-07-13T04:10:56;19.20;66.80
51801;DHT22;37855;53.204;6.568;2023-07-13T04:13:22;19.20;66.90
51801;DHT22;37855;53.204;6.568;2023-07-13T04:15:48;19.20;66.80
51801;DHT22;37855;53.204;6.568;2023-07-13T04:18:17;19.20;66.80
51801;DHT22;37855;53.204;6.568;2023-07-13T04:20:47;19.20;66.80
51801;DHT22;37855;53.204;6.568;2023-07-13T04:23:13;19.20;66.80
51801;DHT22;37855;53.204;6.568;2023-07-13T04:25:42;19.20;66.70
51801;DHT22;37855;53.204;6.568;2023-07-13T04:28:08;19.30;66.70
51801;DHT22;37855;53.204;6.568;2023-07-13T04:30:34;19.30;66.70
51801;DHT22;37855;53.204;6.568;2023-07-13T04:33:00;19.30;66.60
51801;DHT22;37855;53.204;6.568;2023-07-13T04:35:26;19.40;66.60
51801;DHT22;37855;53.204;6.568;2023-07-13T04:37:52;19.40;66.60
51801;DHT22;37855;53.204;6.568;2023-07-13T04:40:19;19.40;66.50
51801;DHT22;37855;53.204;6.568;2023-07-13T04:42:46;19.50;66.50
51801;DHT22;37855;53.204;6.568;2023-07-13T04:45:13;19.50;66.40
51801;DHT22;37855;53.204;6.568;2023-07-13T04:47:40;19.50;66.30
51801;DHT22;37855;53.204;6.568;2023-07-13T04:50:07;19.50;66.30
51801;DHT22;37855;53.204;6.568;2023-07-13T04:52:33;19.50;66.30
51801;DHT22;37855;53.204;6.568;2023-07-13T04:54:59;19.50;66.30
51801;DHT22;37855;53.204;6.568;2023-07-13T04:57:25;19.50;66.30
51801;DHT22;37855;53.204;6.568;2023-07-13T04:59:51;19.60;66.30
51801;DHT22;37855;53.204;6.568;2023-07-13T05:02:18;19.60;66.10
51801;DHT22;37855;53.204;6.568;2023-07-13T05:04:47;19.70;66.10
51801;DHT22;37855;53.204;6.568;2023-07-13T05:07:13;19.70;66.10
51801;DHT22;37855;53.204;6.568;2023-07-13T05:09:39;19.70;66.20
51801;DHT22;37855;53.204;6.568;2023-07-13T05:12:06;19.60;66.30
51801;DHT22;37855;53.204;6.568;2023-07-13T05:14:32;19.60;66.30
51801;DHT22;37855;53.204;6.568;2023-07-13T05:16:58;19.60;66.30
51801;DHT22;37855;53.204;6.568;2023-07-13T05:19:24;19.70;66.20
51801;DHT22;37855;53.204;6.568;2023-07-13T05:21:50;19.70;66.20
51801;DHT22;37855;53.204;6.568;2023-07-13T05:24:15;19.70;66.20
51801;DHT22;37855;53.204;6.568;2023-07-13T05:26:41;19.80;66.20
51801;DHT22;37855;53.204;6.568;2023-07-13T05:29:07;19.80;66.10
51801;DHT22;37855;53.204;6.568;2023-07-13T05:31:32;19.80;66.10
51801;DHT22;37855;53.204;6.568;2023-07-13T05:33:58;19.90;66.00
51801;DHT22;37855;53.204;6.568;2023-07-13T05:36:24;19.90;66.00
51801;DHT22;37855;53.204;6.568;2023-07-13T05:38:50;19.90;66.00
51801;DHT22;37855;53.204;6.568;2023-07-13T05:41:15;19.90;65.90
51801;DHT22;37855;53.204;6.568;2023-07-13T05:43:44;19.90;66.00
51801;DHT22;37855;53.204;6.568;2023-07-13T05:46:10;19.90;66.00
51801;DHT22;37855;53.204;6.568;2023-07-13T05:48:35;19.90;66.00
51801;DHT22;37855;53.204;6.568;2023-07-13T05:51:01;19.90;66.30
51801;DHT22;37855;53.204;6.568;2023-07-13T05:53:28;19.90;66.30
51801;DHT22;37855;53.204;6.568;2023-07-13T05:55:54;19.90;66.30
51801;DHT22;37855;53.204;6.568;2023-07-13T05:58:20;19.90;66.20
51801;DHT22;37855;53.204;6.568;2023-07-13T06:00:47;19.90;66.10
51801;DHT22;37855;53.204;6.568;2023-07-13T06:03:14;19.90;66.20
51801;DHT22;37855;53.204;6.568;2023-07-13T06:05:40;19.90;66.30
51801;DHT22;37855;53.204;6.568;2023-07-13T06:08:07;19.90;66.30
51801;DHT22;37855;53.204;6.568;2023-07-13T06:10:34;19.90;66.40
51801;DHT22;37855;53.204;6.568;2023-07-13T06:13:00;20.00;66.30
51801;DHT22;37855;53.204;6.568;2023-07-13T06:15:28;20.00;66.10
51801;DHT22;37855;53.204;6.568;2023-07-13T06:17:54;20.00;66.30
51801;DHT22;37855;53.204;6.568;2023-07-13T06:20:20;20.00;66.30
51801;DHT22;37855;53.204;6.568;2023-07-13T06:22:46;20.10;66.20
51801;DHT22;37855;53.204;6.568;2023-07-13T06:25:15;20.20;66.10
51801;DHT22;37855;53.204;6.568;2023-07-13T06:27:40;20.20;66.10
51801;DHT22;37855;53.204;6.568;2023-07-13T06:30:06;20.10;66.10
51801;DHT22;37855;53.204;6.568;2023-07-13T06:32:32;20.20;66.10
51801;DHT22;37855;53.204;6.568;2023-07-13T06:34:58;20.20;66.00
51801;DHT22;37855;53.204;6.568;2023-07-13T06:37:24;20.20;66.00
51801;DHT22;37855;53.204;6.568;2023-07-13T06:39:50;20.20;65.90
51801;DHT22;37855;53.204;6.568;2023-07-13T06:42:18;20.30;65.80
51801;DHT22;37855;53.204;6.568;2023-07-13T06:44:47;20.30;65.70
51801;DHT22;37855;53.204;6.568;2023-07-13T06:47:13;20.40;65.60
51801;DHT22;37855;53.204;6.568;2023-07-13T06:49:38;20.40;65.50
51801;DHT22;37855;53.204;6.568;2023-07-13T06:52:05;20.50;65.10
51801;DHT22;37855;53.204;6.568;2023-07-13T06:54:30;20.50;65.10
51801;DHT22;37855;53.204;6.568;2023-07-13T06:56:56;20.50;64.70
51801;DHT22;37855;53.204;6.568;2023-07-13T06:59:22;20.60;64.30
51801;DHT22;37855;53.204;6.568;2023-07-13T07:01:48;20.60;63.80
51801;DHT22;37855;53.204;6.568;2023-07-13T07:04:13;20.70;63.50
51801;DHT22;37855;53.204;6.568;2023-07-13T07:06:39;20.80;63.10
51801;DHT22;37855;53.204;6.568;2023-07-13T07:09:05;20.90;62.80
51801;DHT22;37855;53.204;6.568;2023-07-13T07:11:30;20.90;62.10
51801;DHT22;37855;53.204;6.568;2023-07-13T07:13:56;21.00;61.90
51801;DHT22;37855;53.204;6.568;2023-07-13T07:16:23;21.10;61.80
51801;DHT22;37855;53.204;6.568;2023-07-13T07:18:49;21.10;61.60
51801;DHT22;37855;53.204;6.568;2023-07-13T07:21:15;21.10;61.90
51801;DHT22;37855;53.204;6.568;2023-07-13T07:23:43;21.10;62.20
51801;DHT22;37855;53.204;6.568;2023-07-13T07:26:09;21.00;62.70
51801;DHT22;37855;53.204;6.568;2023-07-13T07:28:36;20.90;62.70
51801;DHT22;37855;53.204;6.568;2023-07-13T07:31:01;20.70;63.00
51801;DHT22;37855;53.204;6.568;2023-07-13T07:33:27;20.50;62.60
51801;DHT22;37855;53.204;6.568;2023-07-13T07:35:53;20.30;62.60
51801;DHT22;37855;53.204;6.568;2023-07-13T07:38:19;20.20;62.80
51801;DHT22;37855;53.204;6.568;2023-07-13T07:40:45;20.20;63.10
51801;DHT22;37855;53.204;6.568;2023-07-13T07:43:12;20.20;63.30
51801;DHT22;37855;53.204;6.568;2023-07-13T07:45:39;20.40;63.50
51801;DHT22;37855;53.204;6.568;2023-07-13T07:48:06;20.50;63.60
51801;DHT22;37855;53.204;6.568;2023-07-13T07:50:33;20.60;63.70
51801;DHT22;37855;53.204;6.568;2023-07-13T07:52:59;20.60;63.60
51801;DHT22;37855;53.204;6.568;2023-07-13T07:55:28;20.60;63.80
51801;DHT22;37855;53.204;6.568;2023-07-13T07:57:56;20.60;63.80
51801;DHT22;37855;53.204;6.568;2023-07-13T08:00:21;20.60;63.80
51801;DHT22;37855;53.204;6.568;2023-07-13T08:02:52;20.60;63.90
51801;DHT22;37855;53.204;6.568;2023-07-13T08:05:20;20.50;64.10
51801;DHT22;37855;53.204;6.568;2023-07-13T08:07:46;20.30;64.50
51801;DHT22;37855;53.204;6.568;2023-07-13T08:10:12;20.10;64.80
51801;DHT22;37855;53.204;6.568;2023-07-13T08:12:38;20.10;64.90
51801;DHT22;37855;53.204;6.568;2023-07-13T08:15:06;20.00;64.60
51801;DHT22;37855;53.204;6.568;2023-07-13T08:17:32;20.00;63.20
51801;DHT22;37855;53.204;6.568;2023-07-13T08:20:01;20.00;63.00
51801;DHT22;37855;53.204;6.568;2023-07-13T08:22:27;19.90;62.90
51801;DHT22;37855;53.204;6.568;2023-07-13T08:24:54;20.00;63.10
51801;DHT22;37855;53.204;6.568;2023-07-13T08:27:24;20.00;63.30
51801;DHT22;37855;53.204;6.568;2023-07-13T08:29:50;20.10;63.60
51801;DHT22;37855;53.204;6.568;2023-07-13T08:32:18;20.20;63.40
51801;DHT22;37855;53.204;6.568;2023-07-13T08:34:45;20.30;62.90
51801;DHT22;37855;53.204;6.568;2023-07-13T08:37:11;20.40;62.80
51801;DHT22;37855;53.204;6.568;2023-07-13T08:39:37;20.50;62.60
51801;DHT22;37855;53.204;6.568;2023-07-13T08:42:37;20.50;62.70
51801;DHT22;37855;53.204;6.568;2023-07-13T08:53:23;21.10;61.80
51801;DHT22;37855;53.204;6.568;2023-07-13T08:55:58;21.20;61.10
51801;DHT22;37855;53.204;6.568;2023-07-13T08:58:25;21.20;60.60
51801;DHT22;37855;53.204;6.568;2023-07-13T09:06:14;21.20;60.80
51801;DHT22;37855;53.204;6.568;2023-07-13T09:08:59;21.20;60.90
51801;DHT22;37855;53.204;6.568;2023-07-13T09:14:35;21.00;60.80
51801;DHT22;37855;53.204;6.568;2023-07-13T09:17:08;20.90;60.60
51801;DHT22;37855;53.204;6.568;2023-07-13T09:19:37;20.80;60.20
51801;DHT22;37855;53.204;6.568;2023-07-13T09:22:07;20.80;60.50
51801;DHT22;37855;53.204;6.568;2023-07-13T09:27:20;21.10;60.60
51801;DHT22;37855;53.204;6.568;2023-07-13T09:29:50;21.10;60.20
51801;DHT22;37855;53.204;6.568;2023-07-13T09:32:21;21.20;59.40
51801;DHT22;37855;53.204;6.568;2023-07-13T09:34:53;21.30;59.60
51801;DHT22;37855;53.204;6.568;2023-07-13T09:37:22;21.50;59.00
51801;DHT22;37855;53.204;6.568;2023-07-13T09:39:49;21.60;58.70
51801;DHT22;37855;53.204;6.568;2023-07-13T09:42:20;21.70;58.60
51801;DHT22;37855;53.204;6.568;2023-07-13T09:47:18;21.80;58.00
51801;DHT22;37855;53.204;6.568;2023-07-13T09:49:44;21.90;58.00
51801;DHT22;37855;53.204;6.568;2023-07-13T09:52:14;22.00;57.60
51801;DHT22;37855;53.204;6.568;2023-07-13T09:54:45;21.90;57.00
51801;DHT22;37855;53.204;6.568;2023-07-13T09:57:23;21.80;57.70
51801;DHT22;37855;53.204;6.568;2023-07-13T09:59:51;21.80;57.40
51801;DHT22;37855;53.204;6.568;2023-07-13T10:05:00;21.60;57.70
51801;DHT22;37855;53.204;6.568;2023-07-13T10:07:31;21.50;57.40
51801;DHT22;37855;53.204;6.568;2023-07-13T10:10:00;21.40;58.00
51801;DHT22;37855;53.204;6.568;2023-07-13T10:12:29;21.30;57.60
51801;DHT22;37855;53.204;6.568;2023-07-13T10:14:58;21.20;57.40
51801;DHT22;37855;53.204;6.568;2023-07-13T10:17:31;21.10;57.30
51801;DHT22;37855;53.204;6.568;2023-07-13T10:20:05;21.00;56.90
51801;DHT22;37855;53.204;6.568;2023-07-13T10:25:25;21.00;54.70
51801;DHT22;37855;53.204;6.568;2023-07-13T10:27:54;21.20;54.50
51801;DHT22;37855;53.204;6.568;2023-07-13T10:30:25;21.30;54.50
51801;DHT22;37855;53.204;6.568;2023-07-13T10:32:57;21.30;54.80
51801;DHT22;37855;53.204;6.568;2023-07-13T10:35:24;21.20;54.30
51801;DHT22;37855;53.204;6.568;2023-07-13T10:37:59;21.20;54.70
51801;DHT22;37855;53.204;6.568;2023-07-13T10:43:04;21.40;54.40
51801;DHT22;37855;53.204;6.568;2023-07-13T10:45:35;21.50;54.50
51801;DHT22;37855;53.204;6.568;2023-07-13T10:48:02;21.50;53.90
51801;DHT22;37855;53.204;6.568;2023-07-13T10:50:30;21.50;53.60
51801;DHT22;37855;53.204;6.568;2023-07-13T10:53:17;21.50;54.00
51801;DHT22;37855;53.204;6.568;2023-07-13T10:58:35;21.30;53.30
51801;DHT22;37855;53.204;6.568;2023-07-13T11:01:16;21.30;53.30
51801;DHT22;37855;53.204;6.568;2023-07-13T11:08:59;21.90;54.10
51801;DHT22;37855;53.204;6.568;2023-07-13T11:11:34;22.10;53.40
51801;DHT22;37855;53.204;6.568;2023-07-13T11:14:02;22.20;53.10
51801;DHT22;37855;53.204;6.568;2023-07-13T11:16:37;22.30;52.40
51801;DHT22;37855;53.204;6.568;2023-07-13T11:21:31;22.30;51.90
51801;DHT22;37855;53.204;6.568;2023-07-13T11:24:12;22.30;51.40
51801;DHT22;37855;53.204;6.568;2023-07-13T11:26:42;22.20;51.60
51801;DHT22;37855;53.204;6.568;2023-07-13T11:32:02;22.10;52.70
51801;DHT22;37855;53.204;6.568;2023-07-13T11:34:43;22.10;52.40
51801;DHT22;37855;53.204;6.568;2023-07-13T11:37:16;22.20;51.70
51801;DHT22;37855;53.204;6.568;2023-07-13T11:39:44;22.20;52.10
51801;DHT22;37855;53.204;6.568;2023-07-13T11:42:14;22.20;51.90
51801;DHT22;37855;53.204;6.568;2023-07-13T11:44:48;22.10;51.80
51801;DHT22;37855;53.204;6.568;2023-07-13T11:47:19;22.20;51.80
51801;DHT22;37855;53.204;6.568;2023-07-13T11:49:50;22.30;51.80
51801;DHT22;37855;53.204;6.568;2023-07-13T11:52:21;22.50;51.70
51801;DHT22;37855;53.204;6.568;2023-07-13T11:54:49;22.50;51.30
51801;DHT22;37855;53.204;6.568;2023-07-13T11:57:30;22.30;51.60
51801;DHT22;37855;53.204;6.568;2023-07-13T12:00:09;22.20;51.50
51801;DHT22;37855;53.204;6.568;2023-07-13T12:02:39;22.20;51.70
51801;DHT22;37855;53.204;6.568;2023-07-13T12:05:10;22.30;51.10
51801;DHT22;37855;53.204;6.568;2023-07-13T12:07:38;22.50;51.40
51801;DHT22;37855;53.204;6.568;2023-07-13T12:12:53;22.40;51.90
51801;DHT22;37855;53.204;6.568;2023-07-13T12:15:20;22.40;51.90
51801;DHT22;37855;53.204;6.568;2023-07-13T12:17:48;22.30;52.00
51801;DHT22;37855;53.204;6.568;2023-07-13T12:20:26;22.10;52.20
51801;DHT22;37855;53.204;6.568;2023-07-13T12:22:52;21.90;52.40
51801;DHT22;37855;53.204;6.568;2023-07-13T12:25:19;21.80;52.30
51801;DHT22;37855;53.204;6.568;2023-07-13T12:27:50;21.70;52.40
51801;DHT22;37855;53.204;6.568;2023-07-13T12:33:15;22.00;51.40
51801;DHT22;37855;53.204;6.568;2023-07-13T12:35:47;22.20;51.20
51801;DHT22;37855;53.204;6.568;2023-07-13T12:38:15;22.40;51.10
51801;DHT22;37855;53.204;6.568;2023-07-13T12:40:41;22.60;51.20
51801;DHT22;37855;53.204;6.568;2023-07-13T12:43:13;22.70;51.00
51801;DHT22;37855;53.204;6.568;2023-07-13T12:46:04;22.70;50.70
51801;DHT22;37855;53.204;6.568;2023-07-13T12:48:38;22.60;51.60
51801;DHT22;37855;53.204;6.568;2023-07-13T12:51:10;22.20;52.90
51801;DHT22;37855;53.204;6.568;2023-07-13T12:53:41;22.00;53.50
51801;DHT22;37855;53.204;6.568;2023-07-13T12:56:15;21.90;53.40
51801;DHT22;37855;53.204;6.568;2023-07-13T12:58:42;21.90;53.40
51801;DHT22;37855;53.204;6.568;2023-07-13T13:01:11;21.80;53.40
51801;DHT22;37855;53.204;6.568;2023-07-13T13:03:44;21.80;53.60
51801;DHT22;37855;53.204;6.568;2023-07-13T13:08:48;21.60;54.60
51801;DHT22;37855;53.204;6.568;2023-07-13T13:11:18;21.60;55.10
51801;DHT22;37855;53.204;6.568;2023-07-13T13:13:45;21.60;54.90
51801;DHT22;37855;53.204;6.568;2023-07-13T13:18:53;21.80;54.50
51801;DHT22;37855;53.204;6.568;2023-07-13T13:21:19;21.90;54.90
51801;DHT22;37855;53.204;6.568;2023-07-13T13:23:47;22.00;55.00
51801;DHT22;37855;53.204;6.568;2023-07-13T13:26:15;22.10;55.10
51801;DHT22;37855;53.204;6.568;2023-07-13T13:28:44;22.10;53.80
51801;DHT22;37855;53.204;6.568;2023-07-13T13:31:11;22.00;53.40
51801;DHT22;37855;53.204;6.568;2023-07-13T13:33:39;21.90;52.30
51801;DHT22;37855;53.204;6.568;2023-07-13T13:36:29;21.90;52.80
51801;DHT22;37855;53.204;6.568;2023-07-13T13:38:55;22.00;53.60
51801;DHT22;37855;53.204;6.568;2023-07-13T13:41:20;21.90;54.30
51801;DHT22;37855;53.204;6.568;2023-07-13T13:43:46;21.80;54.30
51801;DHT22;37855;53.204;6.568;2023-07-13T13:46:18;21.70;54.60
51801;DHT22;37855;53.204;6.568;2023-07-13T13:48:45;21.70;54.70
51801;DHT22;37855;53.204;6.568;2023-07-13T13:51:21;21.50;54.80
51801;DHT22;37855;53.204;6.568;2023-07-13T13:53:48;21.40;54.70
51801;DHT22;37855;53.204;6.568;2023-07-13T13:56:15;21.50;54.70
51801;DHT22;37855;53.204;6.568;2023-07-13T13:58:42;21.50;54.50
51801;DHT22;37855;53.204;6.568;2023-07-13T14:01:20;21.60;54.50
51801;DHT22;37855;53.204;6.568;2023-07-13T14:03:51;21.80;54.20
51801;DHT22;37855;53.204;6.568;2023-07-13T14:06:17;21.80;53.70
51801;DHT22;37855;53.204;6.568;2023-07-13T14:08:44;21.80;54.10
51801;DHT22;37855;53.204;6.568;2023-07-13T14:11:18;21.80;53.90
51801;DHT22;37855;53.204;6.568;2023-07-13T14:13:49;21.70;54.40
51801;DHT22;37855;53.204;6.568;2023-07-13T14:16:20;21.60;54.70
51801;DHT22;37855;53.204;6.568;2023-07-13T14:18:47;21.70;54.60
51801;DHT22;37855;53.204;6.568;2023-07-13T14:21:14;21.80;54.60
51801;DHT22;37855;53.204;6.568;2023-07-13T14:23:40;21.90;54.20
51801;DHT22;37855;53.204;6.568;2023-07-13T14:26:18;22.00;53.30
51801;DHT22;37855;53.204;6.568;2023-07-13T14:28:47;22.10;52.80
51801;DHT22;37855;53.204;6.568;2023-07-13T14:31:14;22.30;52.90
51801;DHT22;37855;53.204;6.568;2023-07-13T14:33:41;22.40;52.20
51801;DHT22;37855;53.204;6.568;2023-07-13T14:36:26;22.40;52.70
51801;DHT22;37855;53.204;6.568;2023-07-13T14:38:52;22.30;52.60
51801;DHT22;37855;53.204;6.568;2023-07-13T14:41:19;22.30;52.80
51801;DHT22;37855;53.204;6.568;2023-07-13T14:43:46;22.30;53.00
51801;DHT22;37855;53.204;6.568;2023-07-13T14:46:33;22.20;53.20
51801;DHT22;37855;53.204;6.568;2023-07-13T14:49:02;22.20;53.60
51801;DHT22;37855;53.204;6.568;2023-07-13T14:51:30;22.30;53.30
51801;DHT22;37855;53.204;6.568;2023-07-13T14:54:02;22.30;53.20
51801;DHT22;37855;53.204;6.568;2023-07-13T14:56:27;22.30;53.50
51801;DHT22;37855;53.204;6.568;2023-07-13T14:58:53;22.30;53.40
51801;DHT22;37855;53.204;6.568;2023-07-13T15:01:20;22.20;53.60
51801;DHT22;37855;53.204;6.568;2023-07-13T15:03:49;22.20;53.80
51801;DHT22;37855;53.204;6.568;2023-07-13T15:06:16;22.30;53.90
51801;DHT22;37855;53.204;6.568;2023-07-13T15:08:42;22.20;54.10
51801;DHT22;37855;53.204;6.568;2023-07-13T15:11:10;22.20;54.00
51801;DHT22;37855;53.204;6.568;2023-07-13T15:13:40;22.10;54.10
51801;DHT22;37855;53.204;6.568;2023-07-13T15:16:22;22.10;54.10
51801;DHT22;37855;53.204;6.568;2023-07-13T15:18:49;22.10;54.00
51801;DHT22;37855;53.204;6.568;2023-07-13T15:21:24;22.00;54.20
51801;DHT22;37855;53.204;6.568;2023-07-13T15:23:52;22.00;54.50
51801;DHT22;37855;53.204;6.568;2023-07-13T15:26:19;22.10;54.30
51801;DHT22;37855;53.204;6.568;2023-07-13T15:28:46;22.10;54.60
51801;DHT22;37855;53.204;6.568;2023-07-13T15:31:22;22.10;54.50
51801;DHT22;37855;53.204;6.568;2023-07-13T15:33:53;22.10;54.50
51801;DHT22;37855;53.204;6.568;2023-07-13T15:36:21;22.10;54.70
51801;DHT22;37855;53.204;6.568;2023-07-13T15:38:50;22.00;54.80
51801;DHT22;37855;53.204;6.568;2023-07-13T15:41:21;22.10;54.80
51801;DHT22;37855;53.204;6.568;2023-07-13T15:43:53;22.10;54.50
51801;DHT22;37855;53.204;6.568;2023-07-13T15:46:20;22.20;54.10
51801;DHT22;37855;53.204;6.568;2023-07-13T15:48:51;22.20;54.50
51801;DHT22;37855;53.204;6.568;2023-07-13T15:51:25;22.20;54.50
51801;DHT22;37855;53.204;6.568;2023-07-13T15:54:02;22.30;53.80
51801;DHT22;37855;53.204;6.568;2023-07-13T15:56:36;22.20;54.00
51801;DHT22;37855;53.204;6.568;2023-07-13T15:59:03;22.30;54.10
51801;DHT22;37855;53.204;6.568;2023-07-13T16:01:30;22.30;53.80
51801;DHT22;37855;53.204;6.568;2023-07-13T16:03:57;22.40;53.70
51801;DHT22;37855;53.204;6.568;2023-07-13T16:06:28;22.40;53.70
51801;DHT22;37855;53.204;6.568;2023-07-13T16:08:55;22.50;53.80
51801;DHT22;37855;53.204;6.568;2023-07-13T16:11:22;22.50;54.00
51801;DHT22;37855;53.204;6.568;2023-07-13T16:13:49;22.50;53.80
51801;DHT22;37855;53.204;6.568;2023-07-13T16:16:25;22.30;54.10
51801;DHT22;37855;53.204;6.568;2023-07-13T16:18:57;22.30;54.30
51801;DHT22;37855;53.204;6.568;2023-07-13T16:21:25;22.40;54.10
51801;DHT22;37855;53.204;6.568;2023-07-13T16:23:55;22.40;54.20
51801;DHT22;37855;53.204;6.568;2023-07-13T16:26:29;22.20;54.30
51801;DHT22;37855;53.204;6.568;2023-07-13T16:29:20;22.20;54.60
51801;DHT22;37855;53.204;6.568;2023-07-13T16:32:03;22.40;54.70